sensor_id;sensor_type;location;lat;lon;timestamp;temperature;humidity
27540;DHT22;15906;52.046;4.724;2023-05-20T00:00:36;12.70;99.90
27540;DHT22;15906;52.046;4.724;2023-05-20T00:03:01;12.60;99.90
27540;DHT22;15906;52.046;4.724;2023-05-20T00:05:27;12.60;99.90
27540;DHT22;15906;52.046;4.724;2023-05-20T00:07:52;12.60;99.90
27540;DHT22;15906;52.046;4.724;2023-05-20T00:10:18;12.60;99.90
27540;DHT22;15906;52.046;4.724;2023-05-20T00:12:43;12.60;99.90
27540;DHT22;15906;52.046;4.724;2023-05-20T00:15:09;12.50;99.90
27540;DHT22;15906;52.046;4.724;2023-05-20T00:17:36;12.40;99.90
27540;DHT22;15906;52.046;4.724;2023-05-20T00:20:02;12.50;99.90
27540;DHT22;15906;52.046;4.724;2023-05-20T00:22:29;12.50;99.90
27540;DHT22;15906;52.046;4.724;2023-05-20T00:24:55;12.50;99.90
27540;DHT22;15906;52.046;4.724;2023-05-20T00:27:20;12.50;99.90
27540;DHT22;15906;52.046;4.724;2023-05-20T00:29:46;12.40;99.90
27540;DHT22;15906;52.046;4.724;2023-05-20T00:32:11;12.40;99.90
27540;DHT22;15906;52.046;4.724;2023-05-20T00:34:38;12.40;99.90
27540;DHT22;15906;52.046;4.724;2023-05-20T00:37:04;12.20;99.90
27540;DHT22;15906;52.046;4.724;2023-05-20T00:39:29;12.30;99.90
27540;DHT22;15906;52.046;4.724;2023-05-20T00:41:55;12.20;99.90
27540;DHT22;15906;52.046;4.724;2023-05-20T00:44:25;12.30;99.90
27540;DHT22;15906;52.046;4.724;2023-05-20T00:46:51;12.30;99.90
27540;DHT22;15906;52.046;4.724;2023-05-20T00:49:17;12.20;99.90
27540;DHT22;15906;52.046;4.724;2023-05-20T00:51:44;12.20;99.90
27540;DHT22;15906;52.046;4.724;2023-05-20T00:54:10;12.20;99.90
27540;DHT22;15906;52.046;4.724;2023-05-20T00:56:36;12.20;99.90
27540;DHT22;15906;52.046;4.724;2023-05-20T00:59:01;12.10;99.90
27540;DHT22;15906;52.046;4.724;2023-05-20T01:01:27;12.20;99.90
27540;DHT22;15906;52.046;4.724;2023-05-20T01:03:53;12.10;99.90
27540;DHT22;15906;52.046;4.724;2023-05-20T01:06:18;12.00;99.90
27540;DHT22;15906;52.046;4.724;2023-05-20T01:08:44;12.00;99.90
27540;DHT22;15906;52.046;4.724;2023-05-20T01:11:25;12.00;99.90
27540;DHT22;15906;52.046;4.724;2023-05-20T01:13:55;11.90;99.90
27540;DHT22;15906;52.046;4.724;2023-05-20T01:16:23;11.90;99.90
27540;DHT22;15906;52.046;4.724;2023-05-20T01:18:50;11.90;99.90
27540;DHT22;15906;52.046;4.724;2023-05-20T01:21:16;11.90;99.90
27540;DHT22;15906;52.046;4.724;2023-05-20T01:23:42;11.90;99.90
27540;DHT22;15906;52.046;4.724;2023-05-20T01:26:09;12.00;99.90
27540;DHT22;15906;52.046;4.724;2023-05-20T01:28:38;12.00;99.90
27540;DHT22;15906;52.046;4.724;2023-05-20T01:31:05;11.90;99.90
27540;DHT22;15906;52.046;4.724;2023-05-20T01:33:35;11.90;99.90
27540;DHT22;15906;52.046;4.724;2023-05-20T01:36:01;11.90;99.90
27540;DHT22;15906;52.046;4.724;2023-05-20T01:38:28;11.90;99.90
27540;DHT22;15906;52.046;4.724;2023-05-20T01:40:54;11.90;99.90
27540;DHT22;15906;52.046;4.724;2023-05-20T01:43:21;11.90;99.90
27540;DHT22;15906;52.046;4.724;2023-05-20T01:45:47;11.90;99.90
27540;DHT22;15906;52.046;4.724;2023-05-20T01:48:12;11.90;99.90
27540;DHT22;15906;52.046;4.724;2023-05-20T01:50:38;11.90;99.90
27540;DHT22;15906;52.046;4.724;2023-05-20T01:53:04;11.90;99.90
27540;DHT22;15906;52.046;4.724;2023-05-20T01:55:32;11.80;99.90
27540;DHT22;15906;52.046;4.724;2023-05-20T01:57:58;11.80;99.90
27540;DHT22;15906;52.046;4.724;2023-05-20T02:00:23;11.80;99.90
27540;DHT22;15906;52.046;4.724;2023-05-20T02:02:49;11.80;99.90
27540;DHT22;15906;52.046;4.724;2023-05-20T02:05:15;11.80;99.90
27540;DHT22;15906;52.046;4.724;2023-05-20T02:07:41;11.70;99.90
27540;DHT22;15906;52.046;4.724;2023-05-20T02:10:06;11.70;99.90
27540;DHT22;15906;52.046;4.724;2023-05-20T02:12:32;11.70;99.90
27540;DHT22;15906;52.046;4.724;2023-05-20T02:14:58;11.70;99.90
27540;DHT22;15906;52.046;4.724;2023-05-20T02:17:23;11.70;99.90
27540;DHT22;15906;52.046;4.724;2023-05-20T02:19:49;11.70;99.90
27540;DHT22;15906;52.046;4.724;2023-05-20T02:22:14;11.60;99.90
27540;DHT22;15906;52.046;4.724;2023-05-20T02:24:40;11.50;99.90
27540;DHT22;15906;52.046;4.724;2023-05-20T02:27:07;11.50;99.90
27540;DHT22;15906;52.046;4.724;2023-05-20T02:29:33;11.50;99.90
27540;DHT22;15906;52.046;4.724;2023-05-20T02:31:59;11.60;99.90
27540;DHT22;15906;52.046;4.724;2023-05-20T02:34:24;11.60;99.90
27540;DHT22;15906;52.046;4.724;2023-05-20T02:36:50;11.60;99.90
27540;DHT22;15906;52.046;4.724;2023-05-20T02:39:16;11.60;99.90
27540;DHT22;15906;52.046;4.724;2023-05-20T02:41:42;11.60;99.90
27540;DHT22;15906;52.046;4.724;2023-05-20T02:44:08;11.60;99.90
27540;DHT22;15906;52.046;4.724;2023-05-20T02:46:33;11.50;99.90
27540;DHT22;15906;52.046;4.724;2023-05-20T02:48:59;11.50;99.90
27540;DHT22;15906;52.046;4.724;2023-05-20T02:51:25;11.60;99.90
27540;DHT22;15906;52.046;4.724;2023-05-20T02:53:50;11.50;99.90
27540;DHT22;15906;52.046;4.724;2023-05-20T02:56:16;11.60;99.90
27540;DHT22;15906;52.046;4.724;2023-05-20T02:58:45;11.50;99.90
27540;DHT22;15906;52.046;4.724;2023-05-20T03:01:11;11.50;99.90
27540;DHT22;15906;52.046;4.724;2023-05-20T03:03:36;11.50;99.90
27540;DHT22;15906;52.046;4.724;2023-05-20T03:06:02;11.40;99.90
27540;DHT22;15906;52.046;4.724;2023-05-20T03:08:28;11.40;99.90
27540;DHT22;15906;52.046;4.724;2023-05-20T03:10:54;11.50;99.90
27540;DHT22;15906;52.046;4.724;2023-05-20T03:13:19;11.40;99.90
27540;DHT22;15906;52.046;4.724;2023-05-20T03:15:45;11.50;99.90
27540;DHT22;15906;52.046;4.724;2023-05-20T03:18:11;11.40;99.90
27540;DHT22;15906;52.046;4.724;2023-05-20T03:20:39;11.40;99.90
27540;DHT22;15906;52.046;4.724;2023-05-20T03:23:06;11.40;99.90
27540;DHT22;15906;52.046;4.724;2023-05-20T03:25:32;11.40;99.90
27540;DHT22;15906;52.046;4.724;2023-05-20T03:27:58;11.40;99.90
27540;DHT22;15906;52.046;4.724;2023-05-20T03:30:24;11.40;99.90
27540;DHT22;15906;52.046;4.724;2023-05-20T03:32:50;11.40;99.90
27540;DHT22;15906;52.046;4.724;2023-05-20T03:35:16;11.40;99.90
27540;DHT22;15906;52.046;4.724;2023-05-20T03:37:42;11.30;99.90
27540;DHT22;15906;52.046;4.724;2023-05-20T03:40:08;11.30;99.90
27540;DHT22;15906;52.046;4.724;2023-05-20T03:42:38;11.30;99.90
27540;DHT22;15906;52.046;4.724;2023-05-20T03:45:04;11.30;99.90
27540;DHT22;15906;52.046;4.724;2023-05-20T03:47:31;11.30;99.90
27540;DHT22;15906;52.046;4.724;2023-05-20T03:49:57;11.40;99.90
27540;DHT22;15906;52.046;4.724;2023-05-20T03:52:22;11.30;99.90
27540;DHT22;15906;52.046;4.724;2023-05-20T03:54:48;11.30;99.90
27540;DHT22;15906;52.046;4.724;2023-05-20T03:57:13;11.30;99.90
27540;DHT22;15906;52.046;4.724;2023-05-20T03:59:39;11.30;99.90
27540;DHT22;15906;52.046;4.724;2023-05-20T04:02:05;11.40;99.90
27540;DHT22;15906;52.046;4.724;2023-05-20T04:04:31;11.40;99.90
27540;DHT22;15906;52.046;4.724;2023-05-20T04:06:57;11.40;99.90
27540;DHT22;15906;52.046;4.724;2023-05-20T04:09:25;11.30;99.90
27540;DHT22;15906;52.046;4.724;2023-05-20T04:11:50;11.40;99.90
27540;DHT22;15906;52.046;4.724;2023-05-20T04:14:16;11.40;99.90
27540;DHT22;15906;52.046;4.724;2023-05-20T04:16:42;11.40;99.90
27540;DHT22;15906;52.046;4.724;2023-05-20T04:19:08;11.30;99.90
27540;DHT22;15906;52.046;4.724;2023-05-20T04:21:33;11.40;99.90
27540;DHT22;15906;52.046;4.724;2023-05-20T04:23:59;11.40;99.90
27540;DHT22;15906;52.046;4.724;2023-05-20T04:26:24;11.40;99.90
27540;DHT22;15906;52.046;4.724;2023-05-20T04:28:50;11.40;99.90
27540;DHT22;15906;52.046;4.724;2023-05-20T04:31:16;11.50;99.90
27540;DHT22;15906;52.046;4.724;2023-05-20T04:33:41;11.50;99.90
27540;DHT22;15906;52.046;4.724;2023-05-20T04:36:09;11.50;99.90
27540;DHT22;15906;52.046;4.724;2023-05-20T04:38:36;11.50;99.90
27540;DHT22;15906;52.046;4.724;2023-05-20T04:41:02;11.60;99.90
27540;DHT22;15906;52.046;4.724;2023-05-20T04:43:28;11.60;99.90
27540;DHT22;15906;52.046;4.724;2023-05-20T04:45:55;11.50;99.90
27540;DHT22;15906;52.046;4.724;2023-05-20T04:48:20;11.50;99.90
27540;DHT22;15906;52.046;4.724;2023-05-20T04:50:47;11.60;99.90
27540;DHT22;15906;52.046;4.724;2023-05-20T04:53:17;11.60;99.90
27540;DHT22;15906;52.046;4.724;2023-05-20T04:55:43;11.60;99.90
27540;DHT22;15906;52.046;4.724;2023-05-20T04:58:09;11.80;99.90
27540;DHT22;15906;52.046;4.724;2023-05-20T05:00:40;11.80;99.90
27540;DHT22;15906;52.046;4.724;2023-05-20T05:03:06;11.80;99.90
27540;DHT22;15906;52.046;4.724;2023-05-20T05:05:35;11.90;99.90
27540;DHT22;15906;52.046;4.724;2023-05-20T05:08:03;11.90;99.90
27540;DHT22;15906;52.046;4.724;2023-05-20T05:10:29;11.90;99.90
27540;DHT22;15906;52.046;4.724;2023-05-20T05:12:54;11.90;99.90
27540;DHT22;15906;52.046;4.724;2023-05-20T05:15:20;11.90;99.90
27540;DHT22;15906;52.046;4.724;2023-05-20T05:17:45;12.00;99.90
27540;DHT22;15906;52.046;4.724;2023-05-20T05:20:11;12.00;99.90
27540;DHT22;15906;52.046;4.724;2023-05-20T05:22:37;12.00;99.90
27540;DHT22;15906;52.046;4.724;2023-05-20T05:25:05;12.10;99.90
27540;DHT22;15906;52.046;4.724;2023-05-20T05:27:31;12.20;99.90
27540;DHT22;15906;52.046;4.724;2023-05-20T05:29:56;12.20;99.90
27540;DHT22;15906;52.046;4.724;2023-05-20T05:32:22;12.20;99.90
27540;DHT22;15906;52.046;4.724;2023-05-20T05:34:47;12.30;99.90
27540;DHT22;15906;52.046;4.724;2023-05-20T05:37:13;12.30;99.90
27540;DHT22;15906;52.046;4.724;2023-05-20T05:39:39;12.40;99.90
27540;DHT22;15906;52.046;4.724;2023-05-20T05:42:04;12.30;99.90
27540;DHT22;15906;52.046;4.724;2023-05-20T05:44:30;12.40;99.90
27540;DHT22;15906;52.046;4.724;2023-05-20T05:46:56;12.40;99.90
27540;DHT22;15906;52.046;4.724;2023-05-20T05:49:21;12.60;99.90
27540;DHT22;15906;52.046;4.724;2023-05-20T05:51:47;12.70;99.90
27540;DHT22;15906;52.046;4.724;2023-05-20T05:54:12;12.80;99.90
27540;DHT22;15906;52.046;4.724;2023-05-20T05:56:38;13.00;99.90
27540;DHT22;15906;52.046;4.724;2023-05-20T05:59:04;13.00;99.90
27540;DHT22;15906;52.046;4.724;2023-05-20T06:01:29;13.10;99.90
27540;DHT22;15906;52.046;4.724;2023-05-20T06:03:55;13.30;99.90
27540;DHT22;15906;52.046;4.724;2023-05-20T06:06:21;13.40;99.90
27540;DHT22;15906;52.046;4.724;2023-05-20T06:08:46;13.50;99.90
27540;DHT22;15906;52.046;4.724;2023-05-20T06:11:12;13.50;99.90
27540;DHT22;15906;52.046;4.724;2023-05-20T06:13:37;13.50;99.90
27540;DHT22;15906;52.046;4.724;2023-05-20T06:16:03;13.60;99.90
27540;DHT22;15906;52.046;4.724;2023-05-20T06:18:29;13.70;99.90
27540;DHT22;15906;52.046;4.724;2023-05-20T06:20:57;13.70;99.90
27540;DHT22;15906;52.046;4.724;2023-05-20T06:23:24;13.70;99.90
27540;DHT22;15906;52.046;4.724;2023-05-20T06:25:50;13.80;99.90
27540;DHT22;15906;52.046;4.724;2023-05-20T06:28:16;13.90;99.90
27540;DHT22;15906;52.046;4.724;2023-05-20T06:30:43;13.90;99.90
27540;DHT22;15906;52.046;4.724;2023-05-20T06:33:08;14.10;99.90
27540;DHT22;15906;52.046;4.724;2023-05-20T06:35:34;14.20;99.90
27540;DHT22;15906;52.046;4.724;2023-05-20T06:38:00;14.20;99.90
27540;DHT22;15906;52.046;4.724;2023-05-20T06:40:29;14.30;99.90
27540;DHT22;15906;52.046;4.724;2023-05-20T06:42:55;14.40;99.90
27540;DHT22;15906;52.046;4.724;2023-05-20T06:45:20;14.50;99.90
27540;DHT22;15906;52.046;4.724;2023-05-20T06:47:46;14.50;99.90
27540;DHT22;15906;52.046;4.724;2023-05-20T06:50:13;14.60;99.90
27540;DHT22;15906;52.046;4.724;2023-05-20T06:52:39;14.80;99.90
27540;DHT22;15906;52.046;4.724;2023-05-20T06:55:05;14.90;99.90
27540;DHT22;15906;52.046;4.724;2023-05-20T06:57:30;14.90;99.90
27540;DHT22;15906;52.046;4.724;2023-05-20T06:59:56;15.10;99.90
27540;DHT22;15906;52.046;4.724;2023-05-20T07:02:22;15.20;99.90
27540;DHT22;15906;52.046;4.724;2023-05-20T07:04:48;15.30;99.90
27540;DHT22;15906;52.046;4.724;2023-05-20T07:07:14;15.40;99.90
27540;DHT22;15906;52.046;4.724;2023-05-20T07:09:41;15.60;99.90
27540;DHT22;15906;52.046;4.724;2023-05-20T07:12:07;15.70;99.90
27540;DHT22;15906;52.046;4.724;2023-05-20T07:14:32;15.80;99.90
27540;DHT22;15906;52.046;4.724;2023-05-20T07:16:58;15.90;99.90
27540;DHT22;15906;52.046;4.724;2023-05-20T07:19:24;15.90;99.90
27540;DHT22;15906;52.046;4.724;2023-05-20T07:21:49;16.10;99.90
27540;DHT22;15906;52.046;4.724;2023-05-20T07:24:15;16.20;99.90
27540;DHT22;15906;52.046;4.724;2023-05-20T07:26:41;16.30;99.90
27540;DHT22;15906;52.046;4.724;2023-05-20T07:29:07;16.50;99.90
27540;DHT22;15906;52.046;4.724;2023-05-20T07:31:34;16.60;99.90
27540;DHT22;15906;52.046;4.724;2023-05-20T07:34:00;16.70;99.90
27540;DHT22;15906;52.046;4.724;2023-05-20T07:36:26;16.70;99.90
27540;DHT22;15906;52.046;4.724;2023-05-20T07:38:52;16.90;99.90
27540;DHT22;15906;52.046;4.724;2023-05-20T07:41:18;17.00;99.90
27540;DHT22;15906;52.046;4.724;2023-05-20T07:43:44;17.20;99.90
27540;DHT22;15906;52.046;4.724;2023-05-20T07:46:09;17.40;99.90
27540;DHT22;15906;52.046;4.724;2023-05-20T07:48:35;17.50;99.90
27540;DHT22;15906;52.046;4.724;2023-05-20T07:51:00;17.60;99.90
27540;DHT22;15906;52.046;4.724;2023-05-20T07:53:26;17.70;99.90
27540;DHT22;15906;52.046;4.724;2023-05-20T07:55:51;17.80;99.90
27540;DHT22;15906;52.046;4.724;2023-05-20T07:58:17;17.90;99.90
27540;DHT22;15906;52.046;4.724;2023-05-20T08:00:43;17.90;99.90
27540;DHT22;15906;52.046;4.724;2023-05-20T08:03:09;18.10;99.90
27540;DHT22;15906;52.046;4.724;2023-05-20T08:05:36;18.00;99.90
27540;DHT22;15906;52.046;4.724;2023-05-20T08:08:03;18.20;99.90
27540;DHT22;15906;52.046;4.724;2023-05-20T08:10:28;18.50;99.90
27540;DHT22;15906;52.046;4.724;2023-05-20T08:12:54;18.70;99.90
27540;DHT22;15906;52.046;4.724;2023-05-20T08:15:20;18.70;99.90
27540;DHT22;15906;52.046;4.724;2023-05-20T08:17:45;18.80;99.90
27540;DHT22;15906;52.046;4.724;2023-05-20T08:20:11;18.80;99.90
27540;DHT22;15906;52.046;4.724;2023-05-20T08:22:37;19.00;99.90
27540;DHT22;15906;52.046;4.724;2023-05-20T08:25:05;19.10;99.90
27540;DHT22;15906;52.046;4.724;2023-05-20T08:27:32;19.20;99.90
27540;DHT22;15906;52.046;4.724;2023-05-20T08:29:57;19.40;99.90
27540;DHT22;15906;52.046;4.724;2023-05-20T08:32:23;19.50;99.90
27540;DHT22;15906;52.046;4.724;2023-05-20T08:34:49;19.60;99.90
27540;DHT22;15906;52.046;4.724;2023-05-20T08:37:15;19.70;99.90
27540;DHT22;15906;52.046;4.724;2023-05-20T08:39:41;19.60;99.90
27540;DHT22;15906;52.046;4.724;2023-05-20T08:42:07;19.60;99.90
27540;DHT22;15906;52.046;4.724;2023-05-20T08:44:33;19.70;98.50
27540;DHT22;15906;52.046;4.724;2023-05-20T08:47:01;19.60;98.20
27540;DHT22;15906;52.046;4.724;2023-05-20T08:49:28;19.80;99.70
27540;DHT22;15906;52.046;4.724;2023-05-20T08:51:54;20.00;99.90
27540;DHT22;15906;52.046;4.724;2023-05-20T08:54:20;20.10;97.00
27540;DHT22;15906;52.046;4.724;2023-05-20T08:56:48;20.20;98.20
27540;DHT22;15906;52.046;4.724;2023-05-20T08:59:14;20.20;97.40
27540;DHT22;15906;52.046;4.724;2023-05-20T09:01:43;20.40;98.60
27540;DHT22;15906;52.046;4.724;2023-05-20T09:04:09;20.40;98.10
27540;DHT22;15906;52.046;4.724;2023-05-20T09:06:42;20.50;98.20
27540;DHT22;15906;52.046;4.724;2023-05-20T09:09:10;20.50;94.60
27540;DHT22;15906;52.046;4.724;2023-05-20T09:11:36;20.50;95.70
27540;DHT22;15906;52.046;4.724;2023-05-20T09:14:02;20.60;95.50
27540;DHT22;15906;52.046;4.724;2023-05-20T09:16:27;20.60;93.30
27540;DHT22;15906;52.046;4.724;2023-05-20T09:18:56;20.60;93.90
27540;DHT22;15906;52.046;4.724;2023-05-20T09:21:28;20.50;93.80
27540;DHT22;15906;52.046;4.724;2023-05-20T09:23:54;20.40;94.30
27540;DHT22;15906;52.046;4.724;2023-05-20T09:26:22;20.40;93.10
27540;DHT22;15906;52.046;4.724;2023-05-20T09:28:49;20.40;92.80
27540;DHT22;15906;52.046;4.724;2023-05-20T09:31:15;20.40;93.60
27540;DHT22;15906;52.046;4.724;2023-05-20T09:33:41;20.40;93.00
27540;DHT22;15906;52.046;4.724;2023-05-20T09:36:08;20.50;92.30
27540;DHT22;15906;52.046;4.724;2023-05-20T09:38:37;20.60;91.60
27540;DHT22;15906;52.046;4.724;2023-05-20T09:41:11;20.60;92.00
27540;DHT22;15906;52.046;4.724;2023-05-20T09:43:38;20.60;92.60
27540;DHT22;15906;52.046;4.724;2023-05-20T09:46:04;20.60;92.30
27540;DHT22;15906;52.046;4.724;2023-05-20T09:48:30;20.70;92.50
27540;DHT22;15906;52.046;4.724;2023-05-20T09:50:56;21.00;92.80
27540;DHT22;15906;52.046;4.724;2023-05-20T09:53:25;21.10;92.00
27540;DHT22;15906;52.046;4.724;2023-05-20T09:55:52;21.20;91.90
27540;DHT22;15906;52.046;4.724;2023-05-20T09:58:20;21.10;90.80
27540;DHT22;15906;52.046;4.724;2023-05-20T10:00:46;21.00;90.60
27540;DHT22;15906;52.046;4.724;2023-05-20T10:03:12;20.90;90.70
27540;DHT22;15906;52.046;4.724;2023-05-20T10:05:42;20.80;90.40
27540;DHT22;15906;52.046;4.724;2023-05-20T10:19:17;20.60;91.70
27540;DHT22;15906;52.046;4.724;2023-05-20T10:21:56;20.70;89.40
27540;DHT22;15906;52.046;4.724;2023-05-20T10:24:29;20.90;90.30
27540;DHT22;15906;52.046;4.724;2023-05-20T10:26:57;20.90;90.30
27540;DHT22;15906;52.046;4.724;2023-05-20T10:29:22;20.90;89.20
27540;DHT22;15906;52.046;4.724;2023-05-20T10:31:50;20.70;85.90
27540;DHT22;15906;52.046;4.724;2023-05-20T10:34:17;20.40;87.90
27540;DHT22;15906;52.046;4.724;2023-05-20T10:39:18;20.40;88.00
27540;DHT22;15906;52.046;4.724;2023-05-20T10:41:44;20.50;89.00
27540;DHT22;15906;52.046;4.724;2023-05-20T10:44:10;20.60;86.30
27540;DHT22;15906;52.046;4.724;2023-05-20T10:46:35;20.70;85.90
27540;DHT22;15906;52.046;4.724;2023-05-20T10:49:02;20.40;90.90
27540;DHT22;15906;52.046;4.724;2023-05-20T10:51:28;20.60;91.00
27540;DHT22;15906;52.046;4.724;2023-05-20T10:53:56;20.70;90.40
27540;DHT22;15906;52.046;4.724;2023-05-20T10:56:24;21.00;90.40
27540;DHT22;15906;52.046;4.724;2023-05-20T10:58:52;21.20;91.20
27540;DHT22;15906;52.046;4.724;2023-05-20T11:01:21;20.90;91.60
27540;DHT22;15906;52.046;4.724;2023-05-20T11:03:48;20.80;92.50
27540;DHT22;15906;52.046;4.724;2023-05-20T11:06:15;21.00;92.80
27540;DHT22;15906;52.046;4.724;2023-05-20T11:08:41;21.20;92.70
27540;DHT22;15906;52.046;4.724;2023-05-20T11:11:07;21.10;90.70
27540;DHT22;15906;52.046;4.724;2023-05-20T11:13:33;20.90;93.60
27540;DHT22;15906;52.046;4.724;2023-05-20T11:16:00;21.00;93.10
27540;DHT22;15906;52.046;4.724;2023-05-20T11:18:26;21.10;94.50
27540;DHT22;15906;52.046;4.724;2023-05-20T11:20:59;21.30;93.70
27540;DHT22;15906;52.046;4.724;2023-05-20T11:23:26;21.50;91.80
27540;DHT22;15906;52.046;4.724;2023-05-20T11:25:53;21.30;93.60
27540;DHT22;15906;52.046;4.724;2023-05-20T11:28:19;21.20;93.50
27540;DHT22;15906;52.046;4.724;2023-05-20T11:30:50;21.00;92.40
27540;DHT22;15906;52.046;4.724;2023-05-20T11:33:17;20.80;91.20
27540;DHT22;15906;52.046;4.724;2023-05-20T11:35:47;20.70;90.40
27540;DHT22;15906;52.046;4.724;2023-05-20T11:38:14;21.00;88.30
27540;DHT22;15906;52.046;4.724;2023-05-20T11:40:49;20.70;86.90
27540;DHT22;15906;52.046;4.724;2023-05-20T11:43:15;20.80;90.80
27540;DHT22;15906;52.046;4.724;2023-05-20T11:45:43;20.90;91.20
27540;DHT22;15906;52.046;4.724;2023-05-20T11:48:09;20.90;89.00
27540;DHT22;15906;52.046;4.724;2023-05-20T11:50:38;20.80;88.10
27540;DHT22;15906;52.046;4.724;2023-05-20T11:53:06;20.70;90.00
27540;DHT22;15906;52.046;4.724;2023-05-20T11:55:32;20.90;88.00
27540;DHT22;15906;52.046;4.724;2023-05-20T11:57:59;20.80;90.10
27540;DHT22;15906;52.046;4.724;2023-05-20T12:00:25;20.60;86.30
27540;DHT22;15906;52.046;4.724;2023-05-20T12:02:51;20.60;88.00
27540;DHT22;15906;52.046;4.724;2023-05-20T12:05:17;20.70;89.90
27540;DHT22;15906;52.046;4.724;2023-05-20T12:07:42;20.80;89.50
27540;DHT22;15906;52.046;4.724;2023-05-20T12:10:09;20.70;88.10
27540;DHT22;15906;52.046;4.724;2023-05-20T12:12:34;20.80;91.20
27540;DHT22;15906;52.046;4.724;2023-05-20T12:15:04;21.10;90.50
27540;DHT22;15906;52.046;4.724;2023-05-20T12:17:42;21.20;88.60
27540;DHT22;15906;52.046;4.724;2023-05-20T12:20:08;21.10;88.60
27540;DHT22;15906;52.046;4.724;2023-05-20T12:22:34;21.30;87.10
27540;DHT22;15906;52.046;4.724;2023-05-20T12:25:00;21.40;86.10
27540;DHT22;15906;52.046;4.724;2023-05-20T12:27:25;21.60;85.60
27540;DHT22;15906;52.046;4.724;2023-05-20T12:29:51;21.50;86.00
27540;DHT22;15906;52.046;4.724;2023-05-20T12:32:16;21.60;87.60
27540;DHT22;15906;52.046;4.724;2023-05-20T12:34:42;22.00;86.30
27540;DHT22;15906;52.046;4.724;2023-05-20T12:37:07;21.80;83.80
27540;DHT22;15906;52.046;4.724;2023-05-20T12:39:33;21.70;85.40
27540;DHT22;15906;52.046;4.724;2023-05-20T12:41:58;21.40;86.80
27540;DHT22;15906;52.046;4.724;2023-05-20T12:44:24;21.40;84.90
27540;DHT22;15906;52.046;4.724;2023-05-20T12:46:50;21.30;87.00
27540;DHT22;15906;52.046;4.724;2023-05-20T12:49:15;21.30;86.60
27540;DHT22;15906;52.046;4.724;2023-05-20T12:51:41;21.10;86.90
27540;DHT22;15906;52.046;4.724;2023-05-20T12:54:06;20.90;87.70
27540;DHT22;15906;52.046;4.724;2023-05-20T12:56:32;20.90;88.20
27540;DHT22;15906;52.046;4.724;2023-05-20T12:58:57;21.10;87.60
27540;DHT22;15906;52.046;4.724;2023-05-20T13:01:23;21.40;88.30
27540;DHT22;15906;52.046;4.724;2023-05-20T13:03:48;21.60;87.10
27540;DHT22;15906;52.046;4.724;2023-05-20T13:06:17;21.70;86.20
27540;DHT22;15906;52.046;4.724;2023-05-20T13:08:43;21.90;86.90
27540;DHT22;15906;52.046;4.724;2023-05-20T13:11:09;22.00;85.50
27540;DHT22;15906;52.046;4.724;2023-05-20T13:13:35;22.00;86.40
27540;DHT22;15906;52.046;4.724;2023-05-20T13:16:01;22.10;86.20
27540;DHT22;15906;52.046;4.724;2023-05-20T13:18:27;22.10;84.00
27540;DHT22;15906;52.046;4.724;2023-05-20T13:20:52;22.00;84.80
27540;DHT22;15906;52.046;4.724;2023-05-20T13:23:18;21.50;84.60
27540;DHT22;15906;52.046;4.724;2023-05-20T13:25:43;21.70;85.90
27540;DHT22;15906;52.046;4.724;2023-05-20T13:28:09;21.70;85.50
27540;DHT22;15906;52.046;4.724;2023-05-20T13:30:36;21.90;90.40
27540;DHT22;15906;52.046;4.724;2023-05-20T13:33:02;21.90;87.00
27540;DHT22;15906;52.046;4.724;2023-05-20T13:35:27;21.70;84.60
27540;DHT22;15906;52.046;4.724;2023-05-20T13:37:53;21.40;85.70
27540;DHT22;15906;52.046;4.724;2023-05-20T13:40:19;21.50;88.30
27540;DHT22;15906;52.046;4.724;2023-05-20T13:42:44;21.60;89.70
27540;DHT22;15906;52.046;4.724;2023-05-20T13:48:32;21.70;85.60
27540;DHT22;15906;52.046;4.724;2023-05-20T13:50:57;21.70;88.50
27540;DHT22;15906;52.046;4.724;2023-05-20T13:53:23;21.70;88.40
27540;DHT22;15906;52.046;4.724;2023-05-20T13:55:48;21.50;86.00
27540;DHT22;15906;52.046;4.724;2023-05-20T13:58:14;21.30;88.10
27540;DHT22;15906;52.046;4.724;2023-05-20T14:00:40;21.10;88.70
27540;DHT22;15906;52.046;4.724;2023-05-20T14:03:05;21.10;87.40
27540;DHT22;15906;52.046;4.724;2023-05-20T14:05:33;21.30;90.00
27540;DHT22;15906;52.046;4.724;2023-05-20T14:08:00;21.40;89.40
27540;DHT22;15906;52.046;4.724;2023-05-20T14:10:25;21.10;88.20
27540;DHT22;15906;52.046;4.724;2023-05-20T14:12:51;21.00;86.80
27540;DHT22;15906;52.046;4.724;2023-05-20T14:15:17;20.80;87.40
27540;DHT22;15906;52.046;4.724;2023-05-20T14:17:43;20.70;88.90
27540;DHT22;15906;52.046;4.724;2023-05-20T14:20:09;20.60;88.60
27540;DHT22;15906;52.046;4.724;2023-05-20T14:22:35;20.60;88.20
27540;DHT22;15906;52.046;4.724;2023-05-20T14:25:00;20.60;87.80
27540;DHT22;15906;52.046;4.724;2023-05-20T14:27:28;20.60;89.40
27540;DHT22;15906;52.046;4.724;2023-05-20T14:29:54;20.70;89.60
27540;DHT22;15906;52.046;4.724;2023-05-20T14:32:19;20.60;90.10
27540;DHT22;15906;52.046;4.724;2023-05-20T14:34:45;20.80;89.30
27540;DHT22;15906;52.046;4.724;2023-05-20T14:37:11;20.70;87.50
27540;DHT22;15906;52.046;4.724;2023-05-20T14:39:37;20.80;90.00
27540;DHT22;15906;52.046;4.724;2023-05-20T14:42:03;20.90;90.50
27540;DHT22;15906;52.046;4.724;2023-05-20T14:44:29;21.10;90.00
27540;DHT22;15906;52.046;4.724;2023-05-20T14:46:55;21.20;90.10
27540;DHT22;15906;52.046;4.724;2023-05-20T14:49:20;21.10;89.10
27540;DHT22;15906;52.046;4.724;2023-05-20T14:51:46;20.90;89.20
27540;DHT22;15906;52.046;4.724;2023-05-20T14:54:12;20.90;90.00
27540;DHT22;15906;52.046;4.724;2023-05-20T14:56:43;20.80;89.90
27540;DHT22;15906;52.046;4.724;2023-05-20T14:59:09;20.80;89.90
27540;DHT22;15906;52.046;4.724;2023-05-20T15:01:35;20.70;89.60
27540;DHT22;15906;52.046;4.724;2023-05-20T15:04:00;20.50;89.70
27540;DHT22;15906;52.046;4.724;2023-05-20T15:06:26;20.50;89.50
27540;DHT22;15906;52.046;4.724;2023-05-20T15:08:51;20.50;90.80
27540;DHT22;15906;52.046;4.724;2023-05-20T15:11:17;20.50;89.70
27540;DHT22;15906;52.046;4.724;2023-05-20T15:13:43;20.40;89.90
27540;DHT22;15906;52.046;4.724;2023-05-20T15:16:11;20.30;90.30
27540;DHT22;15906;52.046;4.724;2023-05-20T15:18:37;20.40;90.90
27540;DHT22;15906;52.046;4.724;2023-05-20T15:21:03;20.50;89.80
27540;DHT22;15906;52.046;4.724;2023-05-20T15:23:28;20.40;89.40
27540;DHT22;15906;52.046;4.724;2023-05-20T15:25:54;20.30;90.00
27540;DHT22;15906;52.046;4.724;2023-05-20T15:28:20;20.30;90.90
27540;DHT22;15906;52.046;4.724;2023-05-20T15:30:50;20.40;90.40
27540;DHT22;15906;52.046;4.724;2023-05-20T15:33:15;20.30;90.40
27540;DHT22;15906;52.046;4.724;2023-05-20T15:35:41;20.30;90.90
27540;DHT22;15906;52.046;4.724;2023-05-20T15:38:06;20.40;90.40
27540;DHT22;15906;52.046;4.724;2023-05-20T15:40:32;20.40;91.20